createdAt,value
2023-04-16T05:02:27.404Z,14.20
2023-04-16T05:04:56.518Z,15.00
2023-04-16T05:07:25.729Z,15.80
2023-04-16T05:09:57.744Z,16.10
2023-04-16T05:12:27.216Z,15.20
2023-04-16T05:14:57.566Z,12.10
2023-04-16T05:17:26.428Z,13.00
2023-04-16T05:19:55.406Z,15.00
2023-04-16T05:22:25.684Z,14.00
2023-04-16T05:24:54.729Z,13.00
2023-04-16T05:27:23.627Z,13.20
2023-04-16T05:29:52.612Z,14.10
2023-04-16T05:32:21.445Z,13.70
2023-04-16T05:34:50.290Z,12.40
2023-04-16T05:37:19.093Z,12.80
2023-04-16T05:39:48.589Z,15.30
2023-04-16T05:42:17.494Z,13.00
2023-04-16T05:44:46.493Z,11.30
2023-04-16T05:47:15.257Z,12.40
2023-04-16T05:49:44.035Z,14.80
2023-04-16T05:52:12.938Z,15.40
2023-04-16T05:54:41.628Z,15.00
2023-04-16T05:57:10.620Z,13.20
2023-04-16T05:59:39.221Z,13.60
2023-04-16T06:02:08.218Z,14.20
2023-04-16T06:04:37.607Z,13.00
2023-04-16T06:07:06.717Z,12.70
2023-04-16T06:09:35.380Z,13.50
2023-04-16T06:12:04.816Z,12.10
2023-04-16T06:14:33.573Z,13.70
2023-04-16T06:17:02.463Z,14.10
2023-04-16T06:19:31.152Z,12.90
2023-04-16T06:22:00.037Z,13.80
2023-04-16T06:24:28.936Z,12.80
2023-04-16T06:26:58.052Z,12.60
2023-04-16T06:29:36.865Z,14.10
2023-04-16T06:32:09.340Z,12.80
2023-04-16T06:34:39.650Z,14.30
2023-04-16T06:37:10.529Z,16.00
2023-04-16T06:39:39.589Z,13.80
2023-04-16T06:42:08.781Z,13.10
2023-04-16T06:44:37.579Z,13.90
2023-04-16T06:47:06.473Z,12.30
2023-04-16T06:49:35.142Z,13.80
2023-04-16T06:52:05.799Z,13.10
2023-04-16T06:54:35.587Z,14.00
2023-04-16T06:57:04.564Z,14.40
2023-04-16T06:59:33.283Z,12.90
2023-04-16T07:02:02.681Z,14.00
2023-04-16T07:04:31.986Z,14.50
2023-04-16T07:07:00.986Z,15.50
2023-04-16T07:09:29.968Z,14.30
2023-04-16T07:11:58.976Z,12.60
2023-04-16T07:14:28.062Z,15.60
2023-04-16T07:16:57.019Z,14.30
2023-04-16T07:19:26.455Z,14.40
2023-04-16T07:21:55.341Z,15.00
2023-04-16T07:24:24.121Z,14.50
2023-04-16T07:26:52.924Z,15.50
2023-04-16T07:29:22.029Z,15.50
2023-04-16T07:31:51.281Z,16.40
2023-04-16T07:34:20.219Z,15.90
2023-04-16T07:36:49.155Z,15.50
2023-04-16T07:39:18.112Z,14.80
2023-04-16T07:41:47.102Z,15.30
2023-04-16T07:44:16.207Z,14.20
2023-04-16T07:46:47.242Z,16.00
2023-04-16T07:49:16.814Z,15.80
2023-04-16T07:51:46.168Z,15.00
2023-04-16T07:54:15.344Z,15.40
2023-04-16T07:56:44.250Z,16.60
2023-04-16T07:59:22.021Z,16.50
2023-04-16T08:01:54.544Z,14.40
2023-04-16T08:04:25.995Z,15.90
2023-04-16T08:06:55.519Z,16.30
2023-04-16T08:09:29.308Z,16.40
2023-04-16T08:11:58.165Z,15.80
2023-04-16T08:14:27.078Z,15.90
2023-04-16T08:16:56.050Z,16.20
2023-04-16T08:19:25.252Z,15.40
2023-04-16T08:21:54.263Z,16.60
2023-04-16T08:24:23.329Z,15.10
2023-04-16T08:26:52.334Z,15.70
2023-04-16T08:29:21.734Z,16.10
2023-04-16T08:31:50.570Z,14.50
2023-04-16T08:34:19.533Z,15.80
2023-04-16T08:36:48.562Z,14.70
2023-04-16T08:39:17.412Z,15.60
2023-04-16T08:41:47.639Z,15.70
2023-04-16T08:44:29.132Z,15.30
2023-04-16T08:46:59.676Z,15.00
2023-04-16T08:49:29.164Z,15.40
2023-04-16T08:51:58.708Z,15.10
2023-04-16T08:55:04.950Z,15.10
2023-04-16T08:57:58.644Z,14.40
2023-04-16T09:00:33.002Z,14.20
2023-04-16T09:03:03.825Z,14.90
2023-04-16T09:05:40.688Z,13.20
2023-04-16T09:08:18.827Z,14.20
2023-04-16T09:10:48.866Z,14.00
2023-04-16T09:13:20.788Z,13.80
2023-04-16T09:15:54.663Z,14.10
2023-04-16T09:18:24.608Z,13.50
2023-04-16T09:20:53.832Z,13.40
2023-04-16T09:23:26.154Z,13.50
2023-04-16T09:25:59.852Z,13.40
2023-04-16T09:28:48.846Z,12.90
2023-04-16T09:31:19.897Z,12.60
2023-04-16T09:34:07.540Z,12.60
2023-04-16T09:36:37.581Z,12.50
2023-04-16T09:39:06.791Z,12.20
2023-04-16T09:41:40.057Z,12.00
2023-04-16T09:44:09.058Z,8.50
2023-04-16T09:46:42.566Z,9.80
2023-04-16T09:49:16.506Z,8.90
2023-04-16T09:51:50.006Z,8.20
2023-04-16T09:54:20.740Z,7.00
2023-04-16T09:56:49.594Z,7.90
2023-04-16T09:59:23.435Z,7.70
2023-04-16T10:02:14.307Z,7.50
2023-04-16T10:04:55.871Z,5.60
2023-04-16T10:07:30.558Z,7.10
2023-04-16T10:09:59.674Z,8.60
2023-04-16T10:12:30.098Z,7.50
2023-04-16T10:14:59.262Z,7.10
2023-04-16T10:17:30.714Z,7.40
2023-04-16T10:20:01.989Z,5.90
2023-04-16T10:22:31.553Z,7.20
2023-04-16T10:25:00.971Z,7.60
2023-04-16T10:27:30.353Z,4.60
2023-04-16T10:29:59.872Z,3.10
2023-04-16T10:32:31.691Z,4.10
2023-04-16T10:35:00.513Z,4.10
2023-04-16T10:37:33.470Z,4.60
2023-04-16T10:40:02.592Z,4.20
2023-04-16T10:42:32.210Z,4.60
2023-04-16T10:45:01.516Z,3.80
2023-04-16T10:47:30.434Z,4.70
2023-04-16T10:49:59.489Z,4.30
2023-04-16T10:52:30.591Z,4.50
2023-04-16T10:55:01.331Z,4.00
2023-04-16T10:57:31.050Z,3.80
2023-04-16T10:59:59.869Z,4.40
2023-04-16T11:02:30.270Z,3.60
2023-04-16T11:04:59.502Z,3.20
2023-04-16T11:07:36.256Z,3.60
2023-04-16T11:10:07.532Z,3.10
2023-04-16T11:12:39.610Z,3.80
2023-04-16T11:15:21.785Z,3.70
2023-04-16T11:21:10.646Z,4.20
2023-04-16T11:23:51.848Z,4.50
2023-04-16T11:26:33.549Z,5.10
2023-04-16T11:29:02.830Z,4.80
2023-04-16T11:31:31.976Z,4.70
2023-04-16T11:34:01.551Z,3.80
2023-04-16T11:36:48.339Z,4.10
2023-04-16T11:39:17.954Z,3.70
2023-04-16T11:41:49.139Z,3.70
2023-04-16T11:44:27.692Z,4.10
2023-04-16T11:46:56.900Z,3.60
2023-04-16T11:49:32.501Z,4.40
2023-04-16T11:52:01.677Z,4.80
2023-04-16T11:54:35.119Z,5.10
2023-04-16T11:57:07.139Z,4.50
2023-04-16T11:59:37.562Z,4.10
2023-04-16T12:02:52.989Z,2.70
2023-04-16T12:05:39.213Z,3.20
2023-04-16T12:08:13.139Z,3.60
2023-04-16T12:10:56.324Z,3.50
2023-04-16T12:13:25.083Z,4.10
2023-04-16T12:15:56.439Z,3.80
2023-04-16T12:18:28.365Z,4.80
2023-04-16T12:20:58.381Z,3.80
2023-04-16T12:23:33.845Z,3.30
2023-04-16T12:26:12.581Z,3.90
2023-04-16T12:28:42.024Z,3.50
2023-04-16T12:31:11.839Z,3.40
2023-04-16T12:33:40.653Z,2.20
2023-04-16T12:36:20.355Z,3.30
2023-04-16T12:38:49.521Z,2.90
2023-04-16T12:41:18.706Z,2.70
2023-04-16T12:43:47.631Z,2.40
2023-04-16T12:46:16.861Z,2.80
2023-04-16T12:48:46.230Z,2.40
2023-04-16T12:51:15.092Z,2.40
2023-04-16T12:53:45.252Z,2.20
2023-04-16T12:56:14.419Z,2.40
2023-04-16T12:58:43.417Z,2.20
2023-04-16T13:01:12.749Z,2.20
2023-04-16T13:03:41.966Z,2.50
2023-04-16T13:06:11.012Z,2.40
2023-04-16T13:08:41.994Z,2.60
2023-04-16T13:11:12.410Z,2.30
2023-04-16T13:13:43.035Z,2.40
2023-04-16T13:16:14.698Z,2.10
2023-04-16T13:18:44.734Z,2.40
2023-04-16T13:21:35.326Z,2.60
2023-04-16T13:24:05.163Z,2.20
2023-04-16T13:26:34.185Z,2.20
2023-04-16T13:29:03.450Z,2.20
2023-04-16T13:31:33.685Z,2.00
2023-04-16T13:34:03.765Z,2.00
2023-04-16T13:36:33.920Z,2.30
2023-04-16T13:39:15.655Z,2.20
2023-04-16T13:41:45.998Z,2.40
2023-04-16T13:44:17.173Z,1.80
2023-04-16T13:46:48.242Z,2.50
2023-04-16T13:49:17.143Z,2.20
2023-04-16T13:51:46.979Z,2.40
2023-04-16T13:54:16.672Z,2.20
2023-04-16T13:56:50.364Z,2.00
2023-04-16T13:59:20.556Z,2.40
2023-04-16T14:01:49.929Z,2.10
2023-04-16T14:04:20.389Z,2.70
2023-04-16T14:06:51.238Z,2.30
2023-04-16T14:09:21.632Z,2.30
2023-04-16T14:11:53.693Z,2.20
2023-04-16T14:14:22.936Z,2.30
2023-04-16T14:16:52.472Z,2.00
2023-04-16T14:19:21.964Z,1.90
2023-04-16T14:21:51.736Z,2.30
2023-04-16T14:24:20.974Z,1.60
2023-04-16T14:26:50.680Z,2.10
2023-04-16T14:29:20.119Z,1.80
2023-04-16T14:31:52.461Z,2.40
2023-04-16T14:34:22.874Z,1.90
2023-04-16T14:36:52.543Z,2.00
2023-04-16T14:39:22.220Z,2.40
2023-04-16T14:41:51.862Z,2.60
2023-04-16T14:44:22.116Z,2.20
2023-04-16T14:46:51.449Z,2.10
2023-04-16T14:49:21.149Z,1.90
2023-04-16T14:51:51.047Z,2.50
2023-04-16T14:54:21.370Z,1.80
2023-04-16T14:56:52.781Z,2.00
2023-04-16T14:59:23.603Z,1.70
2023-04-16T15:01:56.516Z,1.40
2023-04-16T15:04:30.179Z,1.70
2023-04-16T15:07:02.865Z,2.30
2023-04-16T15:09:40.607Z,1.80
2023-04-16T15:12:11.713Z,1.80
2023-04-16T15:14:41.777Z,3.60
2023-04-16T15:17:12.938Z,2.80
2023-04-16T15:22:15.882Z,2.80
2023-04-16T15:24:48.216Z,2.10
2023-04-16T15:27:21.508Z,2.50
2023-04-16T15:29:52.103Z,2.30
2023-04-16T15:32:27.448Z,2.30
2023-04-16T15:35:01.610Z,1.90
2023-04-16T15:37:37.159Z,1.90
2023-04-16T15:40:09.693Z,2.00
2023-04-16T15:42:40.165Z,2.10
2023-04-16T15:45:12.994Z,2.20
2023-04-16T15:47:45.945Z,2.00
2023-04-16T15:50:16.905Z,1.90
2023-04-16T15:52:50.502Z,2.30
2023-04-16T15:55:21.827Z,2.50
2023-04-16T15:57:53.267Z,2.70
2023-04-16T16:00:24.111Z,2.80
2023-04-16T16:02:54.514Z,2.60
2023-04-16T16:05:24.874Z,2.60
2023-04-16T16:07:55.999Z,2.90
2023-04-16T16:10:25.595Z,3.60
2023-04-16T16:12:55.636Z,3.30
2023-04-16T16:15:25.769Z,4.60
2023-04-16T16:17:56.335Z,8.10
2023-04-16T16:20:27.207Z,3.30
2023-04-16T16:22:58.126Z,1.80
2023-04-16T16:25:28.639Z,1.90
2023-04-16T16:27:59.978Z,2.00
2023-04-16T16:30:29.952Z,2.10
2023-04-16T16:33:00.327Z,2.40
2023-04-16T16:35:29.493Z,2.30
2023-04-16T16:38:00.820Z,2.20
2023-04-16T16:40:32.068Z,3.10
2023-04-16T16:43:03.808Z,4.40
2023-04-16T16:45:34.038Z,4.20
2023-04-16T16:48:04.350Z,2.70
2023-04-16T16:50:36.781Z,1.90
2023-04-16T16:53:07.276Z,1.90
2023-04-16T16:55:39.439Z,1.80
2023-04-16T16:58:10.636Z,2.20
2023-04-16T17:00:40.917Z,2.70
2023-04-16T17:03:11.656Z,3.70
2023-04-16T17:05:41.581Z,2.60
2023-04-16T17:08:11.563Z,2.30
2023-04-16T17:10:42.315Z,2.80
2023-04-16T17:13:14.324Z,2.90
2023-04-16T17:15:47.525Z,2.40
2023-04-16T17:18:18.315Z,3.10
2023-04-16T17:20:49.077Z,3.20
2023-04-16T17:23:21.930Z,2.90
2023-04-16T17:25:52.833Z,2.40
2023-04-16T17:28:23.489Z,3.40
2023-04-16T17:30:57.948Z,3.40
2023-04-16T17:33:28.868Z,3.30
2023-04-16T17:36:00.284Z,3.90
2023-04-16T17:41:21.028Z,4.10
2023-04-16T17:43:53.469Z,3.60
2023-04-16T17:46:24.198Z,4.30
2023-04-16T17:49:02.244Z,3.50
2023-04-16T17:51:33.332Z,5.50
2023-04-16T17:54:05.198Z,4.70
2023-04-16T17:56:37.670Z,5.00
2023-04-16T17:59:13.892Z,4.90
2023-04-16T18:01:45.917Z,5.10
2023-04-16T18:04:19.117Z,5.40
2023-04-16T18:06:50.256Z,5.00
2023-04-16T18:09:20.932Z,5.10
2023-04-16T18:11:52.911Z,6.40
2023-04-16T18:14:25.958Z,6.00
2023-04-16T18:16:56.652Z,7.30
2023-04-16T18:19:28.324Z,7.40
2023-04-16T18:22:02.175Z,7.50
2023-04-16T18:24:34.811Z,7.40
2023-04-16T18:27:05.878Z,8.00
2023-04-16T18:29:40.501Z,10.60
2023-04-16T18:32:12.359Z,15.60
2023-04-16T18:34:42.111Z,17.30
2023-04-16T18:37:12.327Z,16.90
2023-04-16T18:39:45.123Z,18.50
2023-04-16T18:42:15.648Z,18.10
2023-04-16T18:44:56.124Z,18.00
2023-04-16T18:47:26.431Z,18.30
2023-04-16T18:49:57.146Z,15.80
2023-04-16T18:52:29.006Z,14.90
2023-04-16T18:55:12.545Z,12.60
2023-04-16T18:57:47.063Z,13.20
2023-04-16T19:00:22.604Z,11.50
2023-04-16T19:02:54.871Z,11.50
2023-04-16T19:05:30.497Z,11.40
2023-04-16T19:08:02.316Z,11.40
2023-04-16T19:10:35.400Z,9.90
2023-04-16T19:13:09.887Z,12.10
2023-04-16T19:15:43.069Z,12.10
2023-04-16T19:18:15.960Z,13.00
2023-04-16T19:20:47.252Z,10.30
2023-04-16T19:23:17.711Z,10.20
2023-04-16T19:25:50.510Z,10.50
2023-04-16T19:28:24.466Z,10.60
2023-04-16T19:30:56.286Z,9.20
2023-04-16T19:33:28.030Z,9.80
2023-04-16T19:35:57.680Z,9.70
2023-04-16T19:38:28.920Z,10.20
2023-04-16T19:41:03.541Z,9.50
2023-04-16T19:43:34.286Z,9.80
2023-04-16T19:46:04.920Z,9.70
2023-04-16T19:48:44.693Z,9.40
2023-04-16T19:51:14.829Z,9.40
2023-04-16T19:53:45.547Z,9.90
2023-04-16T19:56:17.152Z,9.60
2023-04-16T19:58:47.866Z,10.70
2023-04-16T20:01:22.071Z,11.60
2023-04-16T20:03:53.412Z,11.70
2023-04-16T20:06:26.507Z,8.40
2023-04-16T20:08:58.321Z,9.70
2023-04-16T20:11:31.134Z,9.50
2023-04-16T20:14:01.578Z,10.20
2023-04-16T20:16:32.870Z,9.80
2023-04-16T20:19:06.506Z,10.00
2023-04-16T20:21:39.118Z,9.60
2023-04-16T20:24:11.927Z,11.40
2023-04-16T20:26:42.253Z,10.80
2023-04-16T20:29:12.493Z,10.60
2023-04-16T20:31:48.105Z,9.70
2023-04-16T20:34:18.659Z,10.10
2023-04-16T20:36:49.401Z,10.30
2023-04-16T20:39:21.044Z,10.40
2023-04-16T20:41:57.114Z,10.00
2023-04-16T20:44:34.005Z,11.00
2023-04-16T20:47:03.387Z,10.20
2023-04-16T20:49:35.067Z,8.90
2023-04-16T20:52:04.870Z,9.50
2023-04-16T20:54:34.847Z,10.60
2023-04-16T20:57:04.833Z,10.40
2023-04-16T20:59:34.605Z,10.40
2023-04-16T21:02:04.018Z,11.70
2023-04-16T21:04:33.701Z,11.90
2023-04-16T21:07:04.484Z,10.90
2023-04-16T21:09:33.357Z,10.00
2023-04-16T21:12:03.085Z,9.90
2023-04-16T21:14:31.828Z,9.60
2023-04-16T21:17:00.854Z,10.50
2023-04-16T21:19:30.248Z,10.10
2023-04-16T21:21:59.324Z,10.50
2023-04-16T21:24:28.329Z,11.30
2023-04-16T21:26:57.846Z,11.20
2023-04-16T21:29:26.856Z,11.80
2023-04-16T21:31:56.550Z,11.10
2023-04-16T21:34:25.835Z,11.60
2023-04-16T21:36:54.615Z,10.50
2023-04-16T21:39:24.838Z,10.90
2023-04-16T21:41:53.538Z,13.20
2023-04-16T21:44:22.430Z,13.00
2023-04-16T21:46:51.733Z,14.00
2023-04-16T21:49:20.721Z,14.30
2023-04-16T21:51:50.836Z,13.20
2023-04-16T21:54:20.760Z,14.10
2023-04-16T21:56:49.558Z,10.40
2023-04-16T22:04:06.785Z,11.60
2023-04-16T22:07:22.530Z,9.50
2023-04-16T22:11:26.242Z,12.50
2023-04-16T22:20:38.074Z,11.70
2023-04-16T22:32:53.958Z,12.80
2023-04-16T22:36:22.111Z,11.50
2023-04-16T22:40:04.310Z,11.20
2023-04-16T22:48:47.407Z,11.90
2023-04-16T23:04:12.523Z,13.10
2023-04-16T23:08:43.885Z,11.80
2023-04-16T23:12:37.122Z,12.40
2023-04-16T23:16:18.079Z,13.00
2023-04-16T23:32:00.710Z,10.90
2023-04-16T23:40:32.000Z,11.70
2023-04-16T23:44:13.311Z,13.10
2023-04-16T23:47:52.464Z,12.20
2023-04-16T23:51:48.610Z,11.00
2023-04-16T23:55:35.128Z,10.60
2023-04-16T23:59:13.463Z,11.10
